createdAt,value
2022-09-11T00:06:30.617Z,14.30
2022-09-11T00:16:33.406Z,14.20
2022-09-11T00:26:36.894Z,14.20
2022-09-11T00:36:38.642Z,14.00
2022-09-11T00:46:43.389Z,14.00
2022-09-11T00:56:45.220Z,13.90
2022-09-11T01:06:49.633Z,13.80
2022-09-11T01:16:54.265Z,13.70
2022-09-11T01:27:17.067Z,13.60
2022-09-11T01:37:23.645Z,13.60
2022-09-11T01:47:25.464Z,13.50
2022-09-11T01:57:30.528Z,13.40
2022-09-11T02:07:34.485Z,13.40
2022-09-11T02:17:41.008Z,13.30
2022-09-11T02:27:43.139Z,13.20
2022-09-11T02:37:52.613Z,13.10
2022-09-11T02:47:58.811Z,13.00
2022-09-11T02:58:03.265Z,12.90
2022-09-11T03:08:05.088Z,12.80
2022-09-11T03:18:08.199Z,12.90
2022-09-11T03:28:09.999Z,12.90
2022-09-11T03:38:13.198Z,13.10
2022-09-11T03:48:14.953Z,13.30
2022-09-11T03:58:18.759Z,13.40
2022-09-11T04:08:20.519Z,13.50
2022-09-11T04:18:23.660Z,13.60
2022-09-11T04:28:25.474Z,13.60
2022-09-11T04:38:28.626Z,13.80
2022-09-11T04:48:30.455Z,13.90
2022-09-11T04:58:33.909Z,13.90
2022-09-11T05:08:35.743Z,14.00
2022-09-11T05:18:39.348Z,14.00
2022-09-11T05:28:41.155Z,14.00
2022-09-11T05:38:44.547Z,14.00
2022-09-11T05:48:46.364Z,14.00
2022-09-11T05:58:49.692Z,13.90
2022-09-11T06:08:51.757Z,13.90
2022-09-11T06:18:54.931Z,14.00
2022-09-11T06:28:56.706Z,14.10
2022-09-11T06:38:59.833Z,14.40
2022-09-11T06:49:01.740Z,14.60
2022-09-11T06:59:04.880Z,14.80
2022-09-11T07:09:06.644Z,15.00
2022-09-11T07:19:10.041Z,15.30
2022-09-11T07:29:12.129Z,15.70
2022-09-11T07:39:15.360Z,16.40
2022-09-11T07:49:17.402Z,16.90
2022-09-11T07:59:20.506Z,17.10
2022-09-11T08:09:22.274Z,17.50
2022-09-11T08:19:25.426Z,18.30
2022-09-11T08:29:27.206Z,18.90
2022-09-11T08:39:30.378Z,18.70
2022-09-11T08:49:40.691Z,18.90
2022-09-11T08:59:55.725Z,19.60
2022-09-11T09:10:02.348Z,20.90
2022-09-11T09:20:09.054Z,23.50
2022-09-11T09:30:14.709Z,23.60
2022-09-11T09:40:18.764Z,24.10
2022-09-11T09:50:24.334Z,23.60
2022-09-11T10:00:27.616Z,22.90
2022-09-11T10:10:30.137Z,24.00
2022-09-11T10:20:33.352Z,24.00
2022-09-11T10:30:36.368Z,23.40
2022-09-11T10:40:39.821Z,23.50
2022-09-11T10:50:41.617Z,23.70
2022-09-11T11:00:44.928Z,25.50
2022-09-11T11:11:10.704Z,24.20
2022-09-11T11:21:19.207Z,23.30
2022-09-11T11:31:30.552Z,23.60
2022-09-11T11:41:36.166Z,23.70
2022-09-11T11:51:41.049Z,23.20
2022-09-11T12:01:45.238Z,22.70
2022-09-11T12:22:35.862Z,22.70
2022-09-11T12:32:41.703Z,22.90
2022-09-11T12:42:55.559Z,23.10
2022-09-11T12:52:58.115Z,22.90
2022-09-11T13:13:38.000Z,22.50
2022-09-11T13:23:41.200Z,22.70
2022-09-11T13:33:46.827Z,22.50
2022-09-11T13:43:53.420Z,22.60
2022-09-11T13:54:12.513Z,22.90
2022-09-11T14:04:15.680Z,22.80
2022-09-11T14:14:21.856Z,22.70
2022-09-11T14:24:29.115Z,22.40
2022-09-11T14:34:30.852Z,22.70
2022-09-11T14:44:34.494Z,23.50
2022-09-11T14:54:36.423Z,23.60
2022-09-11T15:04:39.689Z,23.70
2022-09-11T15:14:58.796Z,24.10
2022-09-11T15:25:02.379Z,24.00
2022-09-11T15:35:04.327Z,23.90
2022-09-11T15:45:08.647Z,24.30
2022-09-11T15:55:10.415Z,24.20
2022-09-11T16:05:13.549Z,24.20
2022-09-11T16:15:15.299Z,24.50
2022-09-11T16:25:18.459Z,23.20
2022-09-11T16:35:20.316Z,22.50
2022-09-11T16:45:23.522Z,22.20
2022-09-11T16:55:25.274Z,21.80
2022-09-11T17:05:28.522Z,21.50
2022-09-11T17:15:33.476Z,21.10
2022-09-11T17:25:38.471Z,20.90
2022-09-11T17:35:40.425Z,20.70
2022-09-11T17:45:43.695Z,20.50
2022-09-11T17:55:45.924Z,20.20
2022-09-11T18:16:08.553Z,19.70
2022-09-11T18:26:19.863Z,19.40
2022-09-11T18:36:23.595Z,19.20
2022-09-11T18:46:25.594Z,18.90
2022-09-11T18:56:29.286Z,18.80
2022-09-11T19:06:31.033Z,18.60
2022-09-11T19:16:34.499Z,18.40
2022-09-11T19:26:37.623Z,18.30
2022-09-11T19:36:40.872Z,18.20
2022-09-11T19:46:42.700Z,18.20
2022-09-11T19:56:45.909Z,18.10
2022-09-11T20:16:49.681Z,17.80
2022-09-11T20:26:52.771Z,17.70
2022-09-11T20:36:55.881Z,17.60
2022-09-11T20:46:57.749Z,17.50
2022-09-11T20:57:01.091Z,17.40
2022-09-11T21:07:03.034Z,17.30
2022-09-11T21:17:06.230Z,17.10
2022-09-11T21:27:07.984Z,17.10
2022-09-11T21:37:11.105Z,17.00
2022-09-11T21:47:12.877Z,16.90
2022-09-11T21:57:16.036Z,16.80
2022-09-11T22:07:18.294Z,16.70
2022-09-11T22:17:21.431Z,16.60
2022-09-11T22:27:23.210Z,16.50
2022-09-11T22:37:26.415Z,16.40
2022-09-11T22:47:28.188Z,16.30
2022-09-11T22:57:33.991Z,16.20
2022-09-11T23:07:35.776Z,16.10
2022-09-11T23:17:38.927Z,16.00
2022-09-11T23:27:40.682Z,15.90
2022-09-11T23:37:45.582Z,15.80
2022-09-11T23:47:47.391Z,15.80
2022-09-11T23:57:50.540Z,15.80
